createdAt,value
2022-09-16T00:01:55.387Z,16.17
2022-09-16T00:04:21.987Z,16.19
2022-09-16T00:06:48.838Z,16.12
2022-09-16T00:09:15.412Z,16.16
2022-09-16T00:11:42.003Z,16.15
2022-09-16T00:14:09.970Z,16.18
2022-09-16T00:16:36.735Z,16.25
2022-09-16T00:19:03.887Z,16.22
2022-09-16T00:21:31.078Z,16.17
2022-09-16T00:23:57.664Z,16.07
2022-09-16T00:26:24.302Z,16.07
2022-09-16T00:28:51.197Z,16.13
2022-09-16T00:31:18.379Z,16.10
2022-09-16T00:33:45.019Z,16.10
2022-09-16T00:36:19.284Z,16.11
2022-09-16T00:38:45.853Z,16.13
2022-09-16T00:41:17.213Z,16.08
2022-09-16T00:43:56.728Z,16.01
2022-09-16T00:46:29.299Z,15.99
2022-09-16T00:48:57.313Z,16.00
2022-09-16T00:51:25.464Z,16.00
2022-09-16T00:53:57.273Z,16.00
2022-09-16T00:56:25.597Z,15.97
2022-09-16T00:59:21.580Z,15.94
2022-09-16T01:01:48.645Z,15.96
2022-09-16T01:04:20.283Z,15.90
2022-09-16T01:06:46.995Z,15.90
2022-09-16T01:09:13.700Z,15.85
2022-09-16T01:11:40.268Z,15.82
2022-09-16T01:14:26.001Z,15.79
2022-09-16T01:17:08.505Z,15.83
2022-09-16T01:19:43.765Z,15.82
2022-09-16T01:22:39.299Z,15.85
2022-09-16T01:25:28.996Z,15.90
2022-09-16T01:28:25.029Z,15.91
2022-09-16T01:31:13.125Z,15.87
2022-09-16T01:34:14.124Z,15.87
2022-09-16T01:36:51.882Z,15.86
2022-09-16T01:39:41.594Z,15.83
2022-09-16T01:42:18.679Z,15.84
2022-09-16T01:45:06.195Z,15.79
2022-09-16T01:47:45.328Z,15.72
2022-09-16T01:50:30.008Z,15.68
2022-09-16T01:53:15.462Z,15.73
2022-09-16T01:55:58.322Z,15.73
2022-09-16T01:58:37.519Z,15.74
2022-09-16T02:01:18.885Z,15.69
2022-09-16T02:03:50.232Z,15.68
2022-09-16T02:06:22.057Z,15.64
2022-09-16T02:09:00.752Z,15.69
2022-09-16T02:11:27.464Z,15.71
2022-09-16T02:14:27.617Z,15.68
2022-09-16T02:17:01.626Z,15.67
2022-09-16T02:19:42.506Z,15.64
2022-09-16T02:22:13.905Z,15.63
2022-09-16T02:24:42.531Z,15.60
2022-09-16T02:27:13.136Z,15.55
2022-09-16T02:29:43.790Z,15.54
2022-09-16T02:32:11.032Z,15.56
2022-09-16T02:34:42.815Z,15.56
2022-09-16T02:37:14.768Z,15.63
2022-09-16T02:39:43.988Z,15.61
2022-09-16T02:42:10.657Z,15.61
2022-09-16T02:44:37.320Z,15.53
2022-09-16T02:47:17.507Z,15.50
2022-09-16T02:50:01.975Z,15.45
2022-09-16T02:52:47.476Z,15.58
2022-09-16T02:55:15.886Z,15.56
2022-09-16T02:57:42.473Z,15.55
2022-09-16T03:00:09.843Z,15.50
2022-09-16T03:02:36.552Z,15.44
2022-09-16T03:05:03.629Z,15.42
2022-09-16T03:07:30.403Z,15.39
2022-09-16T03:09:57.057Z,15.41
2022-09-16T03:12:28.590Z,15.43
2022-09-16T03:15:32.123Z,15.43
2022-09-16T03:18:01.988Z,15.39
2022-09-16T03:20:41.037Z,15.43
2022-09-16T03:23:19.513Z,15.42
2022-09-16T03:25:57.637Z,15.39
2022-09-16T03:28:28.126Z,15.38
2022-09-16T03:31:08.610Z,15.37
2022-09-16T03:34:07.212Z,15.28
2022-09-16T03:36:39.407Z,15.27
2022-09-16T03:39:06.075Z,15.26
2022-09-16T03:41:34.019Z,15.26
2022-09-16T03:44:04.016Z,15.29
2022-09-16T03:46:31.265Z,15.28
2022-09-16T03:48:58.849Z,15.28
2022-09-16T03:51:26.072Z,15.30
2022-09-16T03:53:53.640Z,15.24
2022-09-16T03:56:20.512Z,15.26
2022-09-16T03:58:50.207Z,15.22
2022-09-16T04:01:16.968Z,15.24
2022-09-16T04:03:43.599Z,15.24
2022-09-16T04:06:10.270Z,15.17
2022-09-16T04:08:37.276Z,15.17
2022-09-16T04:11:05.680Z,15.19
2022-09-16T04:13:36.128Z,15.19
2022-09-16T04:16:03.820Z,15.18
2022-09-16T04:18:31.444Z,15.18
2022-09-16T04:21:02.229Z,15.14
2022-09-16T04:23:31.004Z,15.14
2022-09-16T04:26:02.463Z,15.21
2022-09-16T04:28:32.801Z,15.28
2022-09-16T04:31:04.174Z,15.30
2022-09-16T04:33:35.362Z,15.36
2022-09-16T04:36:09.858Z,15.37
2022-09-16T04:38:36.898Z,15.38
2022-09-16T04:41:15.844Z,15.37
2022-09-16T04:43:42.561Z,15.42
2022-09-16T04:46:09.550Z,15.43
2022-09-16T04:48:36.439Z,15.42
2022-09-16T04:51:08.807Z,15.44
2022-09-16T04:53:36.414Z,15.47
2022-09-16T04:56:15.913Z,15.49
2022-09-16T04:58:44.194Z,15.49
2022-09-16T05:01:15.504Z,15.47
2022-09-16T05:03:43.944Z,15.39
2022-09-16T05:06:15.967Z,15.41
2022-09-16T05:08:45.055Z,15.37
2022-09-16T05:11:23.103Z,15.34
2022-09-16T05:13:50.118Z,15.30
2022-09-16T05:16:19.029Z,15.28
2022-09-16T05:18:47.908Z,15.23
2022-09-16T05:21:16.729Z,15.26
2022-09-16T05:23:46.872Z,15.29
2022-09-16T05:26:19.237Z,15.21
2022-09-16T05:28:46.581Z,15.26
2022-09-16T05:31:16.106Z,15.25
2022-09-16T05:33:44.958Z,15.20
2022-09-16T05:36:14.246Z,15.19
2022-09-16T05:38:41.044Z,15.15
2022-09-16T05:41:08.007Z,15.15
2022-09-16T05:43:36.377Z,15.12
2022-09-16T05:46:04.342Z,15.14
2022-09-16T05:48:31.286Z,15.16
2022-09-16T05:51:00.153Z,15.20
2022-09-16T05:53:28.651Z,15.22
2022-09-16T05:56:00.412Z,15.26
2022-09-16T05:58:28.439Z,15.24
2022-09-16T06:01:02.162Z,15.30
2022-09-16T06:03:29.803Z,15.40
2022-09-16T06:06:03.742Z,15.35
2022-09-16T06:08:32.240Z,15.35
2022-09-16T06:11:03.670Z,15.30
2022-09-16T06:13:30.435Z,15.29
2022-09-16T06:15:57.633Z,15.35
2022-09-16T06:18:26.093Z,15.37
2022-09-16T06:20:53.327Z,15.29
2022-09-16T06:23:20.264Z,15.33
2022-09-16T06:25:47.505Z,15.37
2022-09-16T06:28:14.702Z,15.35
2022-09-16T06:30:41.556Z,15.37
2022-09-16T06:33:09.289Z,15.45
2022-09-16T06:35:35.998Z,15.51
2022-09-16T06:38:02.619Z,15.48
2022-09-16T06:40:29.358Z,15.38
2022-09-16T06:42:59.547Z,15.40
2022-09-16T06:45:29.339Z,15.44
2022-09-16T06:47:59.501Z,15.40
2022-09-16T06:50:26.109Z,15.39
2022-09-16T06:52:52.698Z,15.44
2022-09-16T06:55:19.289Z,15.42
2022-09-16T06:57:45.858Z,15.44
2022-09-16T07:00:14.283Z,15.44
2022-09-16T07:02:40.984Z,15.49
2022-09-16T07:05:08.460Z,15.47
2022-09-16T07:07:36.612Z,15.53
2022-09-16T07:10:03.276Z,15.49
2022-09-16T07:12:29.838Z,15.47
2022-09-16T07:14:56.405Z,15.50
2022-09-16T07:17:27.109Z,15.50
2022-09-16T07:19:53.947Z,15.54
2022-09-16T07:22:20.568Z,15.56
2022-09-16T07:24:47.163Z,15.56
2022-09-16T07:27:14.538Z,15.59
2022-09-16T07:29:41.146Z,15.54
2022-09-16T07:32:08.545Z,15.57
2022-09-16T07:34:35.187Z,15.63
2022-09-16T07:37:01.790Z,15.60
2022-09-16T07:39:28.534Z,15.60
2022-09-16T07:41:55.186Z,15.64
2022-09-16T07:44:22.023Z,15.64
2022-09-16T07:46:51.135Z,15.62
2022-09-16T07:49:18.136Z,15.69
2022-09-16T07:51:44.852Z,15.72
2022-09-16T07:54:14.452Z,15.71
2022-09-16T07:56:42.161Z,15.74
2022-09-16T07:59:14.415Z,15.75
2022-09-16T08:01:44.577Z,15.78
2022-09-16T08:04:12.120Z,15.78
2022-09-16T08:06:39.861Z,15.78
2022-09-16T08:09:21.105Z,15.75
2022-09-16T08:11:53.053Z,15.70
2022-09-16T08:14:19.627Z,15.69
2022-09-16T08:16:46.858Z,15.78
2022-09-16T08:19:13.882Z,15.64
2022-09-16T08:21:40.589Z,15.74
2022-09-16T08:24:07.188Z,15.67
2022-09-16T08:26:33.804Z,15.70
2022-09-16T08:29:09.341Z,15.81
2022-09-16T08:31:37.696Z,15.80
2022-09-16T08:34:04.969Z,15.83
2022-09-16T08:36:33.530Z,15.83
2022-09-16T08:39:00.428Z,15.88
2022-09-16T08:41:26.984Z,15.90
2022-09-16T08:44:07.215Z,15.82
2022-09-16T08:46:55.387Z,15.80
2022-09-16T08:49:35.920Z,15.79
2022-09-16T08:52:14.292Z,15.90
2022-09-16T08:54:45.212Z,15.87
2022-09-16T08:57:16.339Z,15.91
2022-09-16T08:59:46.801Z,15.93
2022-09-16T09:02:23.523Z,16.02
2022-09-16T09:04:50.493Z,16.05
2022-09-16T09:07:32.143Z,16.02
2022-09-16T09:10:26.169Z,15.98
2022-09-16T09:13:10.568Z,16.06
2022-09-16T09:15:43.147Z,16.13
2022-09-16T09:18:17.461Z,16.21
2022-09-16T09:21:10.238Z,16.28
2022-09-16T09:23:49.051Z,16.29
2022-09-16T09:26:22.484Z,16.23
2022-09-16T09:28:52.359Z,16.19
2022-09-16T09:31:32.888Z,16.10
2022-09-16T09:34:23.955Z,15.97
2022-09-16T09:37:14.718Z,16.16
2022-09-16T09:40:05.064Z,16.15
2022-09-16T09:42:55.090Z,16.18
2022-09-16T09:45:27.208Z,16.20
2022-09-16T09:48:21.259Z,16.14
2022-09-16T09:50:49.605Z,16.11
2022-09-16T09:53:28.819Z,16.12
2022-09-16T09:56:00.624Z,16.11
2022-09-16T09:58:35.035Z,16.03
2022-09-16T10:01:01.981Z,16.00
2022-09-16T10:03:30.113Z,16.00
2022-09-16T10:05:56.946Z,15.93
2022-09-16T10:08:42.299Z,16.01
2022-09-16T10:11:23.512Z,16.23
2022-09-16T10:14:00.055Z,16.34
2022-09-16T10:16:33.615Z,16.47
2022-09-16T10:19:16.522Z,16.53
2022-09-16T10:21:53.430Z,16.41
2022-09-16T10:24:41.213Z,16.28
2022-09-16T10:27:19.691Z,16.28
2022-09-16T10:29:46.278Z,16.17
2022-09-16T10:32:18.022Z,16.19
2022-09-16T10:34:45.372Z,16.22
2022-09-16T10:37:14.678Z,16.18
2022-09-16T10:39:44.933Z,16.21
2022-09-16T10:42:22.508Z,16.22
2022-09-16T10:44:51.432Z,16.26
2022-09-16T10:47:24.921Z,16.25
2022-09-16T10:49:55.255Z,16.21
2022-09-16T10:52:27.522Z,16.20
2022-09-16T10:54:54.722Z,16.10
2022-09-16T10:57:25.311Z,16.14
2022-09-16T11:00:08.441Z,16.15
2022-09-16T11:02:58.324Z,16.14
2022-09-16T11:05:34.010Z,16.03
2022-09-16T11:08:03.513Z,16.05
2022-09-16T11:10:39.061Z,16.19
2022-09-16T11:13:05.579Z,16.33
2022-09-16T11:16:09.391Z,16.48
2022-09-16T11:19:04.341Z,16.54
2022-09-16T11:21:37.053Z,16.51
2022-09-16T11:24:27.993Z,16.51
2022-09-16T11:27:03.593Z,16.56
2022-09-16T11:29:45.049Z,16.51
2022-09-16T11:32:17.649Z,16.52
2022-09-16T11:35:01.132Z,16.55
2022-09-16T11:37:43.029Z,16.59
2022-09-16T11:40:53.032Z,16.49
2022-09-16T11:43:44.396Z,16.40
2022-09-16T11:46:20.484Z,16.37
2022-09-16T11:49:00.918Z,16.36
2022-09-16T11:51:49.520Z,16.39
2022-09-16T11:56:53.486Z,16.48
2022-09-16T11:59:33.240Z,16.52
2022-09-16T12:02:41.238Z,16.48
2022-09-16T12:05:35.957Z,16.48
2022-09-16T12:08:23.567Z,16.42
2022-09-16T12:10:54.219Z,16.41
2022-09-16T12:13:28.837Z,16.43
2022-09-16T12:16:02.588Z,16.44
2022-09-16T12:18:33.271Z,16.55
2022-09-16T12:21:08.558Z,16.58
2022-09-16T12:23:43.332Z,16.64
2022-09-16T12:26:43.623Z,16.73
2022-09-16T12:29:18.945Z,16.83
2022-09-16T12:32:14.880Z,16.87
2022-09-16T12:35:06.821Z,16.91
2022-09-16T12:37:41.820Z,16.94
2022-09-16T12:40:19.775Z,16.96
2022-09-16T12:43:31.511Z,16.94
2022-09-16T12:46:07.091Z,16.96
2022-09-16T12:48:45.480Z,17.02
2022-09-16T12:51:27.160Z,17.01
2022-09-16T12:54:05.347Z,16.99
2022-09-16T12:56:43.988Z,17.07
2022-09-16T12:59:53.213Z,17.24
2022-09-16T13:02:22.979Z,17.31
2022-09-16T13:04:57.488Z,17.41
2022-09-16T13:07:30.448Z,17.36
2022-09-16T13:10:46.870Z,17.44
2022-09-16T13:13:30.305Z,17.49
2022-09-16T13:15:58.007Z,17.54
2022-09-16T13:18:38.101Z,17.63
2022-09-16T13:21:20.714Z,17.72
2022-09-16T13:23:51.718Z,17.73
2022-09-16T13:26:18.297Z,17.77
2022-09-16T13:28:46.489Z,17.81
2022-09-16T13:31:13.372Z,17.63
2022-09-16T13:33:42.431Z,17.47
2022-09-16T13:36:19.612Z,17.37
2022-09-16T13:38:49.819Z,17.26
2022-09-16T13:41:43.889Z,17.39
2022-09-16T13:44:39.375Z,17.60
2022-09-16T13:47:12.217Z,17.72
2022-09-16T13:49:43.412Z,17.77
2022-09-16T13:52:12.611Z,17.57
2022-09-16T13:55:08.907Z,17.35
2022-09-16T13:57:58.586Z,17.33
2022-09-16T14:00:32.395Z,17.25
2022-09-16T14:03:14.875Z,17.20
2022-09-16T14:06:18.811Z,17.38
2022-09-16T14:08:58.074Z,17.70
2022-09-16T14:11:32.605Z,17.79
2022-09-16T14:14:36.334Z,17.91
2022-09-16T14:17:15.201Z,18.00
2022-09-16T14:19:42.855Z,18.08
2022-09-16T14:22:21.741Z,18.07
2022-09-16T14:24:53.026Z,18.12
2022-09-16T14:27:27.459Z,18.08
2022-09-16T14:30:02.112Z,18.12
2022-09-16T14:32:34.635Z,18.17
2022-09-16T14:35:04.617Z,18.15
2022-09-16T14:37:32.098Z,18.17
2022-09-16T14:40:13.068Z,18.13
2022-09-16T14:42:47.525Z,18.06
2022-09-16T14:45:16.984Z,18.12
2022-09-16T14:47:52.385Z,18.11
2022-09-16T14:50:22.968Z,18.20
2022-09-16T14:53:04.305Z,18.27
2022-09-16T14:55:33.637Z,18.32
2022-09-16T14:58:00.474Z,18.26
2022-09-16T15:00:44.297Z,18.27
2022-09-16T15:03:44.491Z,18.27
2022-09-16T15:06:18.521Z,18.26
2022-09-16T15:09:06.864Z,18.31
2022-09-16T15:11:47.671Z,18.28
2022-09-16T15:14:15.586Z,18.17
2022-09-16T15:16:48.435Z,18.01
2022-09-16T15:19:23.941Z,17.83
2022-09-16T15:21:51.017Z,17.71
2022-09-16T15:24:21.213Z,17.57
2022-09-16T15:26:48.253Z,17.58
2022-09-16T15:29:17.533Z,17.55
2022-09-16T15:31:44.982Z,17.60
2022-09-16T15:34:23.545Z,17.64
2022-09-16T15:36:52.283Z,17.68
2022-09-16T15:39:25.735Z,17.68
2022-09-16T15:42:17.274Z,17.71
2022-09-16T15:44:47.981Z,17.68
2022-09-16T15:47:29.606Z,17.65
2022-09-16T15:50:18.401Z,17.57
2022-09-16T15:53:01.861Z,17.57
2022-09-16T15:55:34.519Z,17.53
2022-09-16T15:58:39.831Z,17.50
2022-09-16T16:01:32.034Z,17.48
2022-09-16T16:04:00.545Z,17.46
2022-09-16T16:06:50.778Z,17.47
2022-09-16T16:09:29.505Z,17.45
2022-09-16T16:12:08.300Z,17.42
2022-09-16T16:14:35.960Z,17.36
2022-09-16T16:17:22.121Z,17.33
2022-09-16T16:19:50.028Z,17.34
2022-09-16T16:22:17.699Z,17.35
2022-09-16T16:24:45.419Z,17.31
2022-09-16T16:27:12.106Z,17.29
2022-09-16T16:29:39.211Z,17.26
2022-09-16T16:32:10.345Z,17.24
2022-09-16T16:34:39.259Z,17.19
2022-09-16T16:37:07.419Z,17.18
2022-09-16T16:39:34.676Z,17.13
2022-09-16T16:42:02.117Z,17.11
2022-09-16T16:44:28.660Z,17.10
2022-09-16T16:46:55.849Z,17.07
2022-09-16T16:49:22.993Z,17.06
2022-09-16T16:51:54.843Z,17.06
2022-09-16T16:54:22.298Z,17.05
2022-09-16T16:56:49.261Z,17.05
2022-09-16T16:59:16.719Z,16.94
2022-09-16T17:01:48.593Z,16.88
2022-09-16T17:04:15.835Z,16.86
2022-09-16T17:06:42.578Z,16.82
2022-09-16T17:09:14.972Z,16.82
2022-09-16T17:11:57.043Z,16.79
2022-09-16T17:14:25.505Z,16.74
2022-09-16T17:16:52.786Z,16.68
2022-09-16T17:19:19.587Z,16.66
2022-09-16T17:21:46.651Z,16.69
2022-09-16T17:24:13.898Z,16.62
2022-09-16T17:26:40.489Z,16.59
2022-09-16T17:29:15.452Z,16.56
2022-09-16T17:31:42.845Z,16.59
2022-09-16T17:34:13.877Z,16.61
2022-09-16T17:36:43.310Z,16.60
2022-09-16T17:39:17.908Z,16.58
2022-09-16T17:41:45.718Z,16.56
2022-09-16T17:44:13.715Z,16.55
2022-09-16T17:46:41.749Z,16.58
2022-09-16T17:49:22.889Z,16.57
2022-09-16T17:51:50.730Z,16.58
2022-09-16T17:54:17.690Z,16.53
2022-09-16T17:56:44.583Z,16.52
2022-09-16T17:59:12.486Z,16.46
2022-09-16T18:01:39.477Z,16.41
2022-09-16T18:04:07.054Z,16.49
2022-09-16T18:06:40.207Z,16.53
2022-09-16T18:09:09.909Z,16.51
2022-09-16T18:11:37.782Z,16.51
2022-09-16T18:14:05.972Z,16.52
2022-09-16T18:16:32.949Z,16.48
2022-09-16T18:19:01.600Z,16.48
2022-09-16T18:21:28.933Z,16.51
2022-09-16T18:23:58.140Z,16.46
2022-09-16T18:26:25.465Z,16.44
2022-09-16T18:29:10.583Z,16.45
2022-09-16T18:31:39.540Z,16.45
2022-09-16T18:34:06.109Z,16.47
2022-09-16T18:36:35.069Z,16.44
2022-09-16T18:39:01.911Z,16.42
2022-09-16T18:41:35.213Z,16.42
2022-09-16T18:44:04.907Z,16.41
2022-09-16T18:46:33.499Z,16.35
2022-09-16T18:49:00.405Z,16.35
2022-09-16T18:51:32.303Z,16.36
2022-09-16T18:54:02.171Z,16.33
2022-09-16T18:56:32.076Z,16.30
2022-09-16T18:59:22.108Z,16.29
2022-09-16T19:01:53.506Z,16.25
2022-09-16T19:04:24.142Z,16.26
2022-09-16T19:06:52.855Z,16.21
2022-09-16T19:09:21.646Z,16.18
2022-09-16T19:11:49.448Z,16.16
2022-09-16T19:14:16.490Z,16.13
2022-09-16T19:16:44.734Z,16.11
2022-09-16T19:19:13.650Z,16.07
2022-09-16T19:21:40.601Z,16.05
2022-09-16T19:24:10.740Z,16.01
2022-09-16T19:26:37.870Z,16.04
2022-09-16T19:29:06.864Z,16.01
2022-09-16T19:31:35.361Z,16.00
2022-09-16T19:34:01.977Z,16.02
2022-09-16T19:36:30.822Z,16.01
2022-09-16T19:38:58.146Z,15.98
2022-09-16T19:41:30.283Z,15.99
2022-09-16T19:43:59.518Z,15.97
2022-09-16T19:46:27.069Z,15.97
2022-09-16T19:48:54.959Z,15.93
2022-09-16T19:51:22.965Z,15.91
2022-09-16T19:53:50.416Z,15.97
2022-09-16T19:56:21.339Z,15.95
2022-09-16T19:58:48.587Z,15.96
2022-09-16T20:01:18.282Z,15.94
2022-09-16T20:03:45.773Z,15.96
2022-09-16T20:06:18.035Z,15.96
2022-09-16T20:08:45.889Z,15.95
2022-09-16T20:11:18.589Z,15.92
2022-09-16T20:13:49.529Z,15.96
2022-09-16T20:16:16.902Z,15.95
2022-09-16T20:18:43.649Z,15.94
2022-09-16T20:21:12.836Z,15.93
2022-09-16T20:23:40.139Z,15.94
2022-09-16T20:26:08.394Z,15.91
2022-09-16T20:28:37.237Z,15.91
2022-09-16T20:31:05.227Z,15.96
2022-09-16T20:33:33.583Z,15.97
2022-09-16T20:36:05.264Z,15.94
2022-09-16T20:38:31.840Z,15.95
2022-09-16T20:41:13.792Z,15.87
2022-09-16T20:43:41.055Z,15.91
2022-09-16T20:46:12.536Z,15.91
2022-09-16T20:48:40.298Z,15.96
2022-09-16T20:51:09.623Z,15.97
2022-09-16T20:53:37.542Z,15.92
2022-09-16T20:56:10.381Z,15.94
2022-09-16T20:58:37.451Z,15.88
2022-09-16T21:01:06.643Z,15.82
2022-09-16T21:03:33.698Z,15.83
2022-09-16T21:06:01.865Z,15.82
2022-09-16T21:08:33.260Z,15.81
2022-09-16T21:11:17.860Z,15.79
2022-09-16T21:13:46.672Z,15.77
2022-09-16T21:16:15.563Z,15.73
2022-09-16T21:18:42.725Z,15.72
2022-09-16T21:21:16.736Z,15.76
2022-09-16T21:23:45.890Z,15.74
2022-09-16T21:26:20.976Z,15.71
2022-09-16T21:28:52.858Z,15.68
2022-09-16T21:31:19.498Z,15.65
2022-09-16T21:33:49.640Z,15.65
2022-09-16T21:36:16.348Z,15.69
2022-09-16T21:38:43.054Z,15.69
2022-09-16T21:41:12.842Z,15.66
2022-09-16T21:43:41.869Z,15.64
2022-09-16T21:46:17.084Z,15.61
2022-09-16T21:48:43.683Z,15.55
2022-09-16T21:51:12.581Z,15.55
2022-09-16T21:53:42.951Z,15.52
2022-09-16T21:56:20.931Z,15.48
2022-09-16T21:58:49.111Z,15.44
2022-09-16T22:01:18.862Z,15.42
2022-09-16T22:03:47.823Z,15.37
2022-09-16T22:06:16.259Z,15.28
2022-09-16T22:08:48.061Z,15.28
2022-09-16T22:11:16.900Z,15.24
2022-09-16T22:13:43.625Z,15.21
2022-09-16T22:16:18.809Z,15.17
2022-09-16T22:18:45.431Z,15.23
2022-09-16T22:21:13.676Z,15.19
2022-09-16T22:23:40.730Z,15.15
2022-09-16T22:26:09.035Z,15.13
2022-09-16T22:28:35.758Z,15.11
2022-09-16T22:31:10.050Z,15.10
2022-09-16T22:33:37.949Z,15.07
2022-09-16T22:36:10.168Z,15.13
2022-09-16T22:38:37.085Z,15.19
2022-09-16T22:41:06.175Z,15.16
2022-09-16T22:43:40.514Z,15.20
2022-09-16T22:46:09.568Z,15.21
2022-09-16T22:48:36.441Z,15.09
2022-09-16T22:51:03.603Z,15.01
2022-09-16T22:53:31.217Z,15.11
2022-09-16T22:56:00.291Z,15.30
2022-09-16T22:58:27.892Z,15.28
2022-09-16T23:01:05.069Z,15.17
2022-09-16T23:03:31.993Z,15.19
2022-09-16T23:06:01.474Z,15.16
2022-09-16T23:08:29.145Z,15.04
2022-09-16T23:10:56.316Z,15.10
2022-09-16T23:13:23.456Z,15.13
2022-09-16T23:15:53.806Z,15.18
2022-09-16T23:18:21.247Z,15.14
2022-09-16T23:21:01.404Z,15.16
2022-09-16T23:23:31.915Z,15.17
2022-09-16T23:26:02.933Z,15.12
2022-09-16T23:28:30.968Z,15.03
2022-09-16T23:31:11.761Z,15.05
2022-09-16T23:33:39.087Z,15.15
2022-09-16T23:36:06.404Z,15.21
2022-09-16T23:38:34.894Z,15.10
2022-09-16T23:41:13.336Z,15.12
2022-09-16T23:43:41.648Z,15.22
2022-09-16T23:46:09.591Z,15.26
2022-09-16T23:48:36.971Z,15.29
2022-09-16T23:51:04.331Z,15.30
2022-09-16T23:53:32.030Z,15.28
2022-09-16T23:55:58.617Z,15.19
2022-09-16T23:58:25.404Z,15.18
